sensor_id;sensor_type;location;lat;lon;timestamp;pressure;altitude;pressure_sealevel;temperature;humidity
55517;BME280;41724;51.176;-0.708;2023-09-12T00:01:52;100854.36;;;22.33;69.93
55517;BME280;41724;51.176;-0.708;2023-09-12T00:04:19;100859.43;;;22.57;68.98
55517;BME280;41724;51.176;-0.708;2023-09-12T00:06:45;100858.90;;;22.23;70.17
55517;BME280;41724;51.176;-0.708;2023-09-12T00:09:12;100861.34;;;22.21;70.86
55517;BME280;41724;51.176;-0.708;2023-09-12T00:11:39;100863.60;;;22.05;70.62
55517;BME280;41724;51.176;-0.708;2023-09-12T00:14:08;100863.52;;;22.31;71.26
55517;BME280;41724;51.176;-0.708;2023-09-12T00:16:35;100854.89;;;22.31;71.10
55517;BME280;41724;51.176;-0.708;2023-09-12T00:19:01;100853.21;;;21.93;70.75
55517;BME280;41724;51.176;-0.708;2023-09-12T00:21:28;100848.89;;;22.08;71.26
55517;BME280;41724;51.176;-0.708;2023-09-12T00:23:55;100850.15;;;22.36;70.84
55517;BME280;41724;51.176;-0.708;2023-09-12T00:26:22;100852.87;;;20.68;75.07
55517;BME280;41724;51.176;-0.708;2023-09-12T00:28:49;100855.63;;;20.48;78.06
55517;BME280;41724;51.176;-0.708;2023-09-12T00:31:16;100846.68;;;21.24;75.32
55517;BME280;41724;51.176;-0.708;2023-09-12T00:33:43;100846.09;;;21.27;75.00
55517;BME280;41724;51.176;-0.708;2023-09-12T00:36:09;100849.23;;;21.46;74.09
55517;BME280;41724;51.176;-0.708;2023-09-12T00:38:36;100847.88;;;21.14;76.47
55517;BME280;41724;51.176;-0.708;2023-09-12T00:41:03;100852.15;;;20.72;76.93
55517;BME280;41724;51.176;-0.708;2023-09-12T00:43:30;100848.17;;;21.18;75.60
55517;BME280;41724;51.176;-0.708;2023-09-12T00:45:57;100846.38;;;21.63;73.60
55517;BME280;41724;51.176;-0.708;2023-09-12T00:48:24;100841.39;;;21.48;73.40
55517;BME280;41724;51.176;-0.708;2023-09-12T00:50:51;100837.00;;;21.91;72.57
55517;BME280;41724;51.176;-0.708;2023-09-12T00:53:20;100836.08;;;21.98;72.43
55517;BME280;41724;51.176;-0.708;2023-09-12T00:55:53;100831.52;;;21.81;72.71
55517;BME280;41724;51.176;-0.708;2023-09-12T00:58:21;100829.97;;;21.42;74.01
55517;BME280;41724;51.176;-0.708;2023-09-12T01:00:48;100824.85;;;21.59;73.56
55517;BME280;41724;51.176;-0.708;2023-09-12T01:03:15;100828.52;;;21.69;73.16
55517;BME280;41724;51.176;-0.708;2023-09-12T01:05:43;100827.44;;;21.63;73.02
55517;BME280;41724;51.176;-0.708;2023-09-12T01:08:10;100829.99;;;21.45;73.38
55517;BME280;41724;51.176;-0.708;2023-09-12T01:10:37;100829.91;;;21.16;73.44
55517;BME280;41724;51.176;-0.708;2023-09-12T01:13:04;100832.28;;;21.27;74.29
55517;BME280;41724;51.176;-0.708;2023-09-12T01:15:32;100832.96;;;21.30;74.18
55517;BME280;41724;51.176;-0.708;2023-09-12T01:18:00;100832.06;;;21.46;73.81
55517;BME280;41724;51.176;-0.708;2023-09-12T01:20:29;100831.40;;;20.56;77.04
55517;BME280;41724;51.176;-0.708;2023-09-12T01:23:08;100828.63;;;21.41;74.26
55517;BME280;41724;51.176;-0.708;2023-09-12T01:26:01;100826.49;;;21.71;73.47
55517;BME280;41724;51.176;-0.708;2023-09-12T01:28:34;100825.52;;;21.94;72.47
55517;BME280;41724;51.176;-0.708;2023-09-12T01:31:03;100827.49;;;21.83;72.97
55517;BME280;41724;51.176;-0.708;2023-09-12T01:33:32;100826.55;;;21.60;73.95
55517;BME280;41724;51.176;-0.708;2023-09-12T01:35:59;100824.77;;;21.65;72.83
55517;BME280;41724;51.176;-0.708;2023-09-12T01:38:26;100824.92;;;22.01;72.44
55517;BME280;41724;51.176;-0.708;2023-09-12T01:40:55;100825.70;;;22.14;72.01
55517;BME280;41724;51.176;-0.708;2023-09-12T01:43:24;100829.34;;;22.15;71.69
55517;BME280;41724;51.176;-0.708;2023-09-12T01:45:55;100831.07;;;21.69;73.29
55517;BME280;41724;51.176;-0.708;2023-09-12T01:48:26;100830.71;;;22.05;72.10
55517;BME280;41724;51.176;-0.708;2023-09-12T01:50:55;100830.69;;;22.14;71.63
55517;BME280;41724;51.176;-0.708;2023-09-12T01:53:23;100834.89;;;22.29;71.47
55517;BME280;41724;51.176;-0.708;2023-09-12T01:55:50;100834.92;;;21.97;71.65
55517;BME280;41724;51.176;-0.708;2023-09-12T01:58:17;100833.44;;;21.97;72.00
55517;BME280;41724;51.176;-0.708;2023-09-12T02:00:45;100834.09;;;22.27;71.63
55517;BME280;41724;51.176;-0.708;2023-09-12T02:03:14;100833.39;;;22.11;71.39
55517;BME280;41724;51.176;-0.708;2023-09-12T02:05:41;100833.44;;;22.34;71.39
55517;BME280;41724;51.176;-0.708;2023-09-12T02:08:09;100832.34;;;21.84;72.32
55517;BME280;41724;51.176;-0.708;2023-09-12T02:10:37;100831.62;;;22.19;71.99
55517;BME280;41724;51.176;-0.708;2023-09-12T02:13:04;100831.56;;;22.18;71.93
55517;BME280;41724;51.176;-0.708;2023-09-12T02:15:31;100837.58;;;21.92;71.99
55517;BME280;41724;51.176;-0.708;2023-09-12T02:17:58;100838.58;;;22.02;71.63
55517;BME280;41724;51.176;-0.708;2023-09-12T02:20:25;100840.44;;;22.19;71.84
55517;BME280;41724;51.176;-0.708;2023-09-12T02:22:52;100842.84;;;21.75;73.33
55517;BME280;41724;51.176;-0.708;2023-09-12T02:25:20;100842.53;;;22.05;72.38
55517;BME280;41724;51.176;-0.708;2023-09-12T02:27:49;100839.87;;;22.12;72.32
55517;BME280;41724;51.176;-0.708;2023-09-12T02:30:16;100843.27;;;21.58;73.59
55517;BME280;41724;51.176;-0.708;2023-09-12T02:32:43;100845.81;;;21.96;73.04
55517;BME280;41724;51.176;-0.708;2023-09-12T02:35:10;100849.95;;;21.61;74.43
55517;BME280;41724;51.176;-0.708;2023-09-12T02:37:37;100850.50;;;21.11;77.67
55517;BME280;41724;51.176;-0.708;2023-09-12T02:40:05;100850.13;;;20.73;78.43
55517;BME280;41724;51.176;-0.708;2023-09-12T02:42:32;100850.87;;;20.91;78.90
55517;BME280;41724;51.176;-0.708;2023-09-12T02:45:00;100852.14;;;20.62;79.99
55517;BME280;41724;51.176;-0.708;2023-09-12T02:47:27;100853.00;;;21.22;77.16
55517;BME280;41724;51.176;-0.708;2023-09-12T02:49:54;100851.74;;;21.69;75.46
55517;BME280;41724;51.176;-0.708;2023-09-12T02:52:21;100847.05;;;21.65;75.48
55517;BME280;41724;51.176;-0.708;2023-09-12T02:54:49;100844.00;;;21.57;75.70
55517;BME280;41724;51.176;-0.708;2023-09-12T02:57:16;100844.46;;;21.82;75.11
55517;BME280;41724;51.176;-0.708;2023-09-12T02:59:42;100848.50;;;21.79;75.14
55517;BME280;41724;51.176;-0.708;2023-09-12T03:02:10;100849.48;;;22.02;74.38
55517;BME280;41724;51.176;-0.708;2023-09-12T03:04:37;100845.93;;;22.31;73.49
55517;BME280;41724;51.176;-0.708;2023-09-12T03:07:04;100852.36;;;21.78;74.40
55517;BME280;41724;51.176;-0.708;2023-09-12T03:09:31;100853.80;;;21.95;74.58
55517;BME280;41724;51.176;-0.708;2023-09-12T03:12:01;100851.07;;;22.07;74.27
55517;BME280;41724;51.176;-0.708;2023-09-12T03:14:28;100847.73;;;21.64;75.37
55517;BME280;41724;51.176;-0.708;2023-09-12T03:16:55;100841.87;;;22.12;73.85
55517;BME280;41724;51.176;-0.708;2023-09-12T03:19:22;100841.54;;;22.31;73.19
55517;BME280;41724;51.176;-0.708;2023-09-12T03:21:49;100838.17;;;22.14;72.82
55517;BME280;41724;51.176;-0.708;2023-09-12T03:24:16;100836.14;;;22.17;72.62
55517;BME280;41724;51.176;-0.708;2023-09-12T03:26:44;100834.75;;;22.37;72.60
55517;BME280;41724;51.176;-0.708;2023-09-12T03:29:10;100837.59;;;21.93;73.30
55517;BME280;41724;51.176;-0.708;2023-09-12T03:31:37;100835.38;;;22.25;72.75
55517;BME280;41724;51.176;-0.708;2023-09-12T03:34:04;100833.59;;;22.27;72.29
55517;BME280;41724;51.176;-0.708;2023-09-12T03:36:31;100836.88;;;22.00;73.50
55517;BME280;41724;51.176;-0.708;2023-09-12T03:38:59;100834.14;;;21.95;73.76
55517;BME280;41724;51.176;-0.708;2023-09-12T03:41:26;100825.38;;;22.13;72.91
55517;BME280;41724;51.176;-0.708;2023-09-12T03:43:53;100821.25;;;22.11;71.97
55517;BME280;41724;51.176;-0.708;2023-09-12T03:46:21;100819.03;;;22.34;72.03
55517;BME280;41724;51.176;-0.708;2023-09-12T03:48:48;100820.31;;;21.75;72.12
55517;BME280;41724;51.176;-0.708;2023-09-12T03:51:16;100818.48;;;22.36;71.76
55517;BME280;41724;51.176;-0.708;2023-09-12T03:53:43;100819.92;;;22.22;72.24
55517;BME280;41724;51.176;-0.708;2023-09-12T03:56:10;100823.36;;;21.95;73.17
55517;BME280;41724;51.176;-0.708;2023-09-12T03:58:37;100821.71;;;22.05;72.39
55517;BME280;41724;51.176;-0.708;2023-09-12T04:01:06;100819.85;;;21.73;72.89
55517;BME280;41724;51.176;-0.708;2023-09-12T04:03:33;100818.63;;;21.90;72.54
55517;BME280;41724;51.176;-0.708;2023-09-12T04:06:00;100820.04;;;21.61;72.57
55517;BME280;41724;51.176;-0.708;2023-09-12T04:08:27;100817.29;;;21.77;72.07
55517;BME280;41724;51.176;-0.708;2023-09-12T04:10:54;100811.84;;;22.01;72.24
55517;BME280;41724;51.176;-0.708;2023-09-12T04:13:21;100810.17;;;21.70;71.52
55517;BME280;41724;51.176;-0.708;2023-09-12T04:15:48;100810.50;;;21.72;72.42
55517;BME280;41724;51.176;-0.708;2023-09-12T04:18:15;100810.16;;;22.15;71.94
55517;BME280;41724;51.176;-0.708;2023-09-12T04:20:42;100808.61;;;21.88;71.88
55517;BME280;41724;51.176;-0.708;2023-09-12T04:23:09;100806.52;;;22.08;71.99
55517;BME280;41724;51.176;-0.708;2023-09-12T04:25:36;100804.16;;;22.19;71.64
55517;BME280;41724;51.176;-0.708;2023-09-12T04:28:04;100801.08;;;22.22;71.60
55517;BME280;41724;51.176;-0.708;2023-09-12T04:30:31;100799.34;;;22.28;71.17
55517;BME280;41724;51.176;-0.708;2023-09-12T04:32:58;100797.33;;;22.08;71.86
55517;BME280;41724;51.176;-0.708;2023-09-12T04:35:25;100795.03;;;21.87;71.90
55517;BME280;41724;51.176;-0.708;2023-09-12T04:37:52;100790.34;;;21.96;72.46
55517;BME280;41724;51.176;-0.708;2023-09-12T04:40:20;100792.79;;;21.64;73.60
55517;BME280;41724;51.176;-0.708;2023-09-12T04:42:46;100789.30;;;21.82;72.66
55517;BME280;41724;51.176;-0.708;2023-09-12T04:45:14;100789.15;;;22.04;72.62
55517;BME280;41724;51.176;-0.708;2023-09-12T04:47:41;100788.67;;;22.07;72.34
55517;BME280;41724;51.176;-0.708;2023-09-12T04:50:09;100788.00;;;21.92;72.80
55517;BME280;41724;51.176;-0.708;2023-09-12T04:52:36;100790.43;;;21.95;72.47
55517;BME280;41724;51.176;-0.708;2023-09-12T04:55:04;100792.80;;;22.16;72.15
55517;BME280;41724;51.176;-0.708;2023-09-12T04:57:31;100793.51;;;21.92;72.83
55517;BME280;41724;51.176;-0.708;2023-09-12T04:59:58;100796.55;;;21.75;71.99
55517;BME280;41724;51.176;-0.708;2023-09-12T05:02:26;100794.46;;;21.91;72.15
55517;BME280;41724;51.176;-0.708;2023-09-12T05:04:53;100797.59;;;21.78;72.09
55517;BME280;41724;51.176;-0.708;2023-09-12T05:07:20;100801.62;;;21.85;72.82
55517;BME280;41724;51.176;-0.708;2023-09-12T05:09:47;100801.18;;;21.90;73.38
55517;BME280;41724;51.176;-0.708;2023-09-12T05:12:14;100799.24;;;21.65;73.37
55517;BME280;41724;51.176;-0.708;2023-09-12T05:14:41;100800.90;;;21.73;73.39
55517;BME280;41724;51.176;-0.708;2023-09-12T05:17:08;100799.66;;;21.65;73.42
55517;BME280;41724;51.176;-0.708;2023-09-12T05:19:35;100797.27;;;21.82;72.58
55517;BME280;41724;51.176;-0.708;2023-09-12T05:22:03;100800.26;;;21.79;72.95
55517;BME280;41724;51.176;-0.708;2023-09-12T05:24:30;100806.71;;;21.62;73.57
55517;BME280;41724;51.176;-0.708;2023-09-12T05:26:57;100807.35;;;21.46;74.04
55517;BME280;41724;51.176;-0.708;2023-09-12T05:29:24;100811.33;;;21.55;73.58
55517;BME280;41724;51.176;-0.708;2023-09-12T05:31:51;100815.96;;;21.59;73.40
55517;BME280;41724;51.176;-0.708;2023-09-12T05:34:18;100819.24;;;21.79;72.92
55517;BME280;41724;51.176;-0.708;2023-09-12T05:36:45;100818.80;;;21.86;72.78
55517;BME280;41724;51.176;-0.708;2023-09-12T05:39:12;100819.42;;;21.65;73.07
55517;BME280;41724;51.176;-0.708;2023-09-12T05:41:39;100815.85;;;21.54;72.85
55517;BME280;41724;51.176;-0.708;2023-09-12T05:44:06;100823.48;;;21.45;73.48
55517;BME280;41724;51.176;-0.708;2023-09-12T05:46:33;100823.77;;;21.47;73.62
55517;BME280;41724;51.176;-0.708;2023-09-12T05:49:00;100822.07;;;21.69;73.11
55517;BME280;41724;51.176;-0.708;2023-09-12T05:51:27;100825.03;;;21.47;73.69
55517;BME280;41724;51.176;-0.708;2023-09-12T05:53:54;100825.87;;;21.88;72.11
55517;BME280;41724;51.176;-0.708;2023-09-12T05:56:21;100827.60;;;21.80;72.11
55517;BME280;41724;51.176;-0.708;2023-09-12T05:58:48;100832.59;;;21.78;71.92
55517;BME280;41724;51.176;-0.708;2023-09-12T06:01:15;100834.29;;;21.65;72.41
55517;BME280;41724;51.176;-0.708;2023-09-12T06:03:42;100837.20;;;21.82;72.35
55517;BME280;41724;51.176;-0.708;2023-09-12T06:06:09;100841.91;;;21.85;72.10
55517;BME280;41724;51.176;-0.708;2023-09-12T06:08:36;100840.39;;;21.58;72.08
55517;BME280;41724;51.176;-0.708;2023-09-12T06:11:03;100843.00;;;22.00;71.94
55517;BME280;41724;51.176;-0.708;2023-09-12T06:13:30;100846.90;;;21.77;71.83
55517;BME280;41724;51.176;-0.708;2023-09-12T06:15:57;100846.63;;;22.01;71.82
55517;BME280;41724;51.176;-0.708;2023-09-12T06:18:24;100849.77;;;21.86;72.31
55517;BME280;41724;51.176;-0.708;2023-09-12T06:20:51;100852.44;;;21.86;72.65
55517;BME280;41724;51.176;-0.708;2023-09-12T06:23:18;100857.38;;;22.02;71.21
55517;BME280;41724;51.176;-0.708;2023-09-12T06:25:45;100862.02;;;21.94;72.08
55517;BME280;41724;51.176;-0.708;2023-09-12T06:28:12;100864.83;;;22.19;71.28
55517;BME280;41724;51.176;-0.708;2023-09-12T06:30:38;100866.31;;;21.91;71.33
55517;BME280;41724;51.176;-0.708;2023-09-12T06:33:05;100867.27;;;21.98;71.48
55517;BME280;41724;51.176;-0.708;2023-09-12T06:35:32;100869.21;;;21.73;72.74
55517;BME280;41724;51.176;-0.708;2023-09-12T06:37:59;100876.45;;;20.86;76.69
55517;BME280;41724;51.176;-0.708;2023-09-12T06:40:26;100877.47;;;19.79;81.91
55517;BME280;41724;51.176;-0.708;2023-09-12T06:42:54;100873.25;;;20.83;79.24
55517;BME280;41724;51.176;-0.708;2023-09-12T06:45:21;100873.61;;;19.91;81.79
55517;BME280;41724;51.176;-0.708;2023-09-12T06:47:48;100868.63;;;20.24;81.07
55517;BME280;41724;51.176;-0.708;2023-09-12T06:50:15;100871.78;;;20.43;79.21
55517;BME280;41724;51.176;-0.708;2023-09-12T06:52:42;100870.95;;;21.42;76.32
55517;BME280;41724;51.176;-0.708;2023-09-12T06:55:10;100868.43;;;21.77;75.05
55517;BME280;41724;51.176;-0.708;2023-09-12T06:57:37;100869.20;;;22.05;74.30
55517;BME280;41724;51.176;-0.708;2023-09-12T07:00:05;100867.94;;;22.48;71.95
55517;BME280;41724;51.176;-0.708;2023-09-12T07:02:33;100869.88;;;22.09;73.30
55517;BME280;41724;51.176;-0.708;2023-09-12T07:05:00;100872.84;;;22.35;72.98
55517;BME280;41724;51.176;-0.708;2023-09-12T07:07:27;100878.57;;;22.41;71.83
55517;BME280;41724;51.176;-0.708;2023-09-12T07:09:54;100881.06;;;22.33;73.24
55517;BME280;41724;51.176;-0.708;2023-09-12T07:12:21;100881.07;;;22.41;72.62
55517;BME280;41724;51.176;-0.708;2023-09-12T07:14:48;100889.44;;;21.10;76.99
55517;BME280;41724;51.176;-0.708;2023-09-12T07:17:17;100886.39;;;21.73;75.82
55517;BME280;41724;51.176;-0.708;2023-09-12T07:19:44;100883.02;;;22.15;73.89
55517;BME280;41724;51.176;-0.708;2023-09-12T07:22:11;100883.93;;;22.60;72.66
55517;BME280;41724;51.176;-0.708;2023-09-12T07:24:38;100887.56;;;22.10;72.93
55517;BME280;41724;51.176;-0.708;2023-09-12T07:27:05;100894.59;;;20.15;79.82
55517;BME280;41724;51.176;-0.708;2023-09-12T07:29:32;100896.58;;;19.82;81.11
55517;BME280;41724;51.176;-0.708;2023-09-12T07:31:59;100895.77;;;20.48;80.57
55517;BME280;41724;51.176;-0.708;2023-09-12T07:34:26;100894.24;;;19.62;85.36
55517;BME280;41724;51.176;-0.708;2023-09-12T07:36:53;100894.11;;;20.31;81.45
55517;BME280;41724;51.176;-0.708;2023-09-12T07:39:20;100892.64;;;21.71;77.58
55517;BME280;41724;51.176;-0.708;2023-09-12T07:41:47;100893.02;;;22.02;75.09
55517;BME280;41724;51.176;-0.708;2023-09-12T07:44:14;100890.51;;;22.51;73.35
55517;BME280;41724;51.176;-0.708;2023-09-12T07:46:41;100897.52;;;22.01;74.54
55517;BME280;41724;51.176;-0.708;2023-09-12T07:49:07;100898.26;;;22.84;72.86
55517;BME280;41724;51.176;-0.708;2023-09-12T07:51:34;100898.55;;;22.21;73.07
55517;BME280;41724;51.176;-0.708;2023-09-12T07:54:02;100900.16;;;22.76;71.24
55517;BME280;41724;51.176;-0.708;2023-09-12T07:56:30;100897.68;;;22.68;70.93
55517;BME280;41724;51.176;-0.708;2023-09-12T07:58:57;100902.40;;;22.04;73.21
55517;BME280;41724;51.176;-0.708;2023-09-12T08:01:24;100901.21;;;21.41;75.54
55517;BME280;41724;51.176;-0.708;2023-09-12T08:03:51;100904.48;;;21.51;76.37
55517;BME280;41724;51.176;-0.708;2023-09-12T08:06:18;100901.60;;;22.27;73.78
55517;BME280;41724;51.176;-0.708;2023-09-12T08:08:45;100899.26;;;22.68;72.88
55517;BME280;41724;51.176;-0.708;2023-09-12T08:11:12;100906.65;;;21.47;75.02
55517;BME280;41724;51.176;-0.708;2023-09-12T08:13:39;100906.76;;;22.33;73.36
55517;BME280;41724;51.176;-0.708;2023-09-12T08:16:06;100913.16;;;22.14;74.24
55517;BME280;41724;51.176;-0.708;2023-09-12T08:18:33;100914.94;;;22.06;74.25
55517;BME280;41724;51.176;-0.708;2023-09-12T08:20:59;100913.95;;;21.82;74.70
55517;BME280;41724;51.176;-0.708;2023-09-12T08:23:27;100911.08;;;22.13;73.39
55517;BME280;41724;51.176;-0.708;2023-09-12T08:25:54;100915.23;;;20.60;79.19
55517;BME280;41724;51.176;-0.708;2023-09-12T08:28:21;100918.40;;;20.92;78.76
55517;BME280;41724;51.176;-0.708;2023-09-12T08:30:48;100921.88;;;20.87;76.25
55517;BME280;41724;51.176;-0.708;2023-09-12T08:33:15;100917.63;;;20.80;77.52
55517;BME280;41724;51.176;-0.708;2023-09-12T08:35:42;100917.30;;;21.76;74.12
55517;BME280;41724;51.176;-0.708;2023-09-12T08:38:09;100911.78;;;22.33;72.18
55517;BME280;41724;51.176;-0.708;2023-09-12T08:40:38;100906.95;;;23.04;69.49
55517;BME280;41724;51.176;-0.708;2023-09-12T08:43:05;100908.37;;;23.47;67.94
55517;BME280;41724;51.176;-0.708;2023-09-12T08:45:32;100905.88;;;24.02;65.14
55517;BME280;41724;51.176;-0.708;2023-09-12T08:48:00;100905.68;;;23.95;66.02
55517;BME280;41724;51.176;-0.708;2023-09-12T08:50:28;100906.67;;;24.04;64.60
55517;BME280;41724;51.176;-0.708;2023-09-12T08:52:56;100904.68;;;24.13;65.17
55517;BME280;41724;51.176;-0.708;2023-09-12T08:55:22;100904.11;;;23.55;64.70
55517;BME280;41724;51.176;-0.708;2023-09-12T08:57:50;100899.21;;;24.60;63.08
55517;BME280;41724;51.176;-0.708;2023-09-12T09:00:18;100896.69;;;24.82;62.54
55517;BME280;41724;51.176;-0.708;2023-09-12T09:02:46;100901.18;;;24.42;62.82
55517;BME280;41724;51.176;-0.708;2023-09-12T09:05:14;100901.99;;;25.04;61.91
55517;BME280;41724;51.176;-0.708;2023-09-12T09:07:42;100901.53;;;25.42;60.88
55517;BME280;41724;51.176;-0.708;2023-09-12T09:10:15;100902.74;;;25.17;60.42
55517;BME280;41724;51.176;-0.708;2023-09-12T09:12:44;100903.50;;;24.65;59.68
55517;BME280;41724;51.176;-0.708;2023-09-12T09:15:28;100904.11;;;24.80;60.23
55517;BME280;41724;51.176;-0.708;2023-09-12T09:17:57;100907.88;;;24.24;61.36
55517;BME280;41724;51.176;-0.708;2023-09-12T09:20:27;100906.49;;;24.95;60.42
55517;BME280;41724;51.176;-0.708;2023-09-12T09:22:58;100903.96;;;25.11;60.87
55517;BME280;41724;51.176;-0.708;2023-09-12T09:25:26;100904.02;;;25.52;59.32
55517;BME280;41724;51.176;-0.708;2023-09-12T09:27:53;100902.07;;;25.56;58.48
55517;BME280;41724;51.176;-0.708;2023-09-12T09:30:40;100903.37;;;25.47;58.67
55517;BME280;41724;51.176;-0.708;2023-09-12T09:33:08;100901.30;;;25.54;59.27
55517;BME280;41724;51.176;-0.708;2023-09-12T09:35:36;100900.04;;;24.23;61.32
55517;BME280;41724;51.176;-0.708;2023-09-12T09:38:05;100898.20;;;24.01;62.20
55517;BME280;41724;51.176;-0.708;2023-09-12T09:40:33;100898.85;;;24.52;59.65
55517;BME280;41724;51.176;-0.708;2023-09-12T09:43:00;100899.90;;;25.41;58.90
55517;BME280;41724;51.176;-0.708;2023-09-12T09:45:28;100901.63;;;24.84;60.24
55517;BME280;41724;51.176;-0.708;2023-09-12T09:47:57;100897.52;;;24.29;61.33
55517;BME280;41724;51.176;-0.708;2023-09-12T09:50:25;100897.45;;;24.56;60.69
55517;BME280;41724;51.176;-0.708;2023-09-12T09:52:54;100897.54;;;24.85;60.72
55517;BME280;41724;51.176;-0.708;2023-09-12T09:55:22;100893.96;;;25.01;59.30
55517;BME280;41724;51.176;-0.708;2023-09-12T09:57:49;100895.40;;;23.99;62.36
55517;BME280;41724;51.176;-0.708;2023-09-12T10:00:16;100894.40;;;24.36;60.57
55517;BME280;41724;51.176;-0.708;2023-09-12T10:02:44;100899.15;;;23.84;62.37
55517;BME280;41724;51.176;-0.708;2023-09-12T10:05:13;100905.29;;;22.34;67.46
55517;BME280;41724;51.176;-0.708;2023-09-12T10:07:41;100911.38;;;22.60;68.53
55517;BME280;41724;51.176;-0.708;2023-09-12T10:10:10;100905.94;;;23.78;63.46
55517;BME280;41724;51.176;-0.708;2023-09-12T10:12:45;100902.95;;;24.42;61.95
55517;BME280;41724;51.176;-0.708;2023-09-12T10:15:19;100906.20;;;22.33;67.76
55517;BME280;41724;51.176;-0.708;2023-09-12T10:17:51;100904.07;;;22.72;67.19
55517;BME280;41724;51.176;-0.708;2023-09-12T10:20:30;100905.08;;;23.79;63.75
55517;BME280;41724;51.176;-0.708;2023-09-12T10:23:06;100910.15;;;23.46;64.69
55517;BME280;41724;51.176;-0.708;2023-09-12T10:25:36;100908.04;;;24.02;61.37
55517;BME280;41724;51.176;-0.708;2023-09-12T10:28:04;100908.06;;;23.35;62.09
55517;BME280;41724;51.176;-0.708;2023-09-12T10:30:32;100910.32;;;23.60;63.50
55517;BME280;41724;51.176;-0.708;2023-09-12T10:33:01;100906.39;;;24.46;60.56
55517;BME280;41724;51.176;-0.708;2023-09-12T10:35:30;100905.76;;;24.06;60.88
55517;BME280;41724;51.176;-0.708;2023-09-12T10:38:00;100910.65;;;21.74;69.09
55517;BME280;41724;51.176;-0.708;2023-09-12T10:40:29;100910.31;;;23.38;63.39
55517;BME280;41724;51.176;-0.708;2023-09-12T10:42:57;100912.13;;;22.22;65.50
55517;BME280;41724;51.176;-0.708;2023-09-12T10:45:27;100910.70;;;23.24;63.89
55517;BME280;41724;51.176;-0.708;2023-09-12T10:47:54;100907.83;;;24.07;61.61
55517;BME280;41724;51.176;-0.708;2023-09-12T10:50:21;100907.88;;;24.27;59.96
55517;BME280;41724;51.176;-0.708;2023-09-12T10:52:48;100908.06;;;24.75;59.40
55517;BME280;41724;51.176;-0.708;2023-09-12T10:55:16;100908.74;;;23.75;62.58
55517;BME280;41724;51.176;-0.708;2023-09-12T10:58:00;100907.05;;;23.18;62.75
55517;BME280;41724;51.176;-0.708;2023-09-12T11:00:28;100904.01;;;24.17;61.07
55517;BME280;41724;51.176;-0.708;2023-09-12T11:02:55;100899.39;;;24.68;60.30
55517;BME280;41724;51.176;-0.708;2023-09-12T11:05:39;100896.72;;;24.87;58.10
55517;BME280;41724;51.176;-0.708;2023-09-12T11:08:16;100898.25;;;24.89;59.91
55517;BME280;41724;51.176;-0.708;2023-09-12T11:10:45;100895.18;;;24.90;59.28
55517;BME280;41724;51.176;-0.708;2023-09-12T11:13:44;100906.40;;;22.15;64.79
55517;BME280;41724;51.176;-0.708;2023-09-12T11:16:13;100904.30;;;22.72;65.95
55517;BME280;41724;51.176;-0.708;2023-09-12T11:19:14;100902.60;;;23.57;62.52
55517;BME280;41724;51.176;-0.708;2023-09-12T11:21:43;100894.54;;;24.81;60.11
55517;BME280;41724;51.176;-0.708;2023-09-12T11:24:11;100894.68;;;24.36;60.65
55517;BME280;41724;51.176;-0.708;2023-09-12T11:26:56;100894.28;;;23.97;60.44
55517;BME280;41724;51.176;-0.708;2023-09-12T11:29:27;100895.05;;;24.55;59.60
55517;BME280;41724;51.176;-0.708;2023-09-12T11:31:55;100898.56;;;22.41;65.82
55517;BME280;41724;51.176;-0.708;2023-09-12T11:34:24;100896.64;;;23.87;62.48
55517;BME280;41724;51.176;-0.708;2023-09-12T11:36:55;100904.21;;;22.75;64.57
55517;BME280;41724;51.176;-0.708;2023-09-12T11:39:23;100899.70;;;23.50;63.73
55517;BME280;41724;51.176;-0.708;2023-09-12T11:41:50;100898.38;;;23.55;63.77
55517;BME280;41724;51.176;-0.708;2023-09-12T11:44:19;100899.72;;;22.52;66.12
55517;BME280;41724;51.176;-0.708;2023-09-12T11:46:48;100897.84;;;22.70;64.45
55517;BME280;41724;51.176;-0.708;2023-09-12T11:49:16;100893.77;;;22.18;66.21
55517;BME280;41724;51.176;-0.708;2023-09-12T11:51:48;100893.65;;;22.27;67.48
55517;BME280;41724;51.176;-0.708;2023-09-12T11:54:17;100889.78;;;23.53;62.69
55517;BME280;41724;51.176;-0.708;2023-09-12T11:56:46;100885.28;;;24.77;60.28
55517;BME280;41724;51.176;-0.708;2023-09-12T11:59:13;100882.12;;;25.40;56.65
55517;BME280;41724;51.176;-0.708;2023-09-12T12:01:40;100881.14;;;25.33;57.37
55517;BME280;41724;51.176;-0.708;2023-09-12T12:04:09;100883.15;;;25.36;56.58
55517;BME280;41724;51.176;-0.708;2023-09-12T12:06:36;100886.87;;;24.86;56.46
55517;BME280;41724;51.176;-0.708;2023-09-12T12:09:04;100885.76;;;24.95;58.06
55517;BME280;41724;51.176;-0.708;2023-09-12T12:11:32;100886.49;;;25.28;57.70
55517;BME280;41724;51.176;-0.708;2023-09-12T12:14:09;100887.06;;;25.29;56.33
55517;BME280;41724;51.176;-0.708;2023-09-12T12:16:37;100882.75;;;25.16;55.13
55517;BME280;41724;51.176;-0.708;2023-09-12T12:19:06;100883.77;;;25.39;55.86
55517;BME280;41724;51.176;-0.708;2023-09-12T12:21:33;100876.22;;;27.44;50.65
55517;BME280;41724;51.176;-0.708;2023-09-12T12:24:01;100874.29;;;27.32;51.33
55517;BME280;41724;51.176;-0.708;2023-09-12T12:26:29;100876.15;;;25.76;53.44
55517;BME280;41724;51.176;-0.708;2023-09-12T12:28:56;100868.90;;;27.35;51.10
55517;BME280;41724;51.176;-0.708;2023-09-12T12:31:25;100871.22;;;26.76;51.60
55517;BME280;41724;51.176;-0.708;2023-09-12T12:33:54;100876.30;;;24.23;56.42
55517;BME280;41724;51.176;-0.708;2023-09-12T12:36:21;100877.14;;;24.67;57.41
55517;BME280;41724;51.176;-0.708;2023-09-12T12:38:49;100878.02;;;22.72;61.43
55517;BME280;41724;51.176;-0.708;2023-09-12T12:41:22;100876.05;;;24.47;58.09
55517;BME280;41724;51.176;-0.708;2023-09-12T12:43:50;100877.52;;;22.23;62.78
55517;BME280;41724;51.176;-0.708;2023-09-12T12:46:20;100875.66;;;22.57;63.24